San Ygnacio, Texas
Current Conditions -  °F | °C
As of 3:15 PM on Sunday 23 Nov 2014 (Local Time) from KAPY Reporting Station
Clear Clear  
Wind Chill: 84°   Ceiling: Unl
Heat Index: 84°   Visibility: 10mi
Dew Point: 49°   Wind: 8mph
Humidity: 29%   Direction: 160°SSE
Pressure: 29.62"   Gusts: NA
Location:  27.04°N, 99.44°W
Report Text: KAPY 232115Z AUTO 16007KT 10SM CLR 28/09 A2962 RMK AO2 T02910093
Loading
Personal Weather Stations






























Interactive Weather Map New forecast layout! Learn more

10-Day Weather Forecast

Advertisements
Track Severe Weather on mobile